Time;durP1;ratioP1;P1;durP2;ratioP2;P2;SDS_P1;SDS_P2;PMS_P1;PMS_P2;Temp;Humidity;BMP_temperature;BMP_pressure;BME280_temperature;BME280_humidity;BME280_pressure;Samples;Min_cycle;Max_cycle;Signal;HPM_P1;HPM_P2
2022/03/25 00:02:01;;;;;;;22.58;15.38;;;7.40;99.90;;;;;;5099236;28;20047;-78
2022/03/25 00:04:27;;;;;;;16.73;14.02;;;7.30;99.90;;;;;;5097812;28;20032;-78
2022/03/25 00:06:53;;;;;;;19.67;15.25;;;7.30;99.90;;;;;;5098901;28;20028;-78
2022/03/25 00:09:19;;;;;;;18.42;15.63;;;7.30;99.90;;;;;;5098660;28;20060;-78
2022/03/25 00:11:45;;;;;;;21.75;15.10;;;7.30;99.90;;;;;;5099197;28;20026;-77
2022/03/25 00:14:11;;;;;;;21.80;16.30;;;7.20;99.90;;;;;;5097692;28;20031;-78
2022/03/25 00:16:37;;;;;;;22.05;15.85;;;7.30;99.90;;;;;;5099021;28;20028;-78
2022/03/25 00:19:03;;;;;;;19.42;17.30;;;7.30;99.90;;;;;;5097376;28;20050;-78
2022/03/25 00:21:29;;;;;;;22.25;16.00;;;7.30;99.90;;;;;;5098887;28;20508;-78
2022/03/25 00:23:55;;;;;;;28.63;16.58;;;7.30;99.90;;;;;;5098311;28;20016;-78
2022/03/25 00:26:21;;;;;;;23.95;17.20;;;7.30;99.90;;;;;;5098697;28;20503;-78
2022/03/25 00:28:47;;;;;;;27.48;18.75;;;7.40;99.90;;;;;;5097513;28;20099;-78
2022/03/25 00:31:14;;;;;;;26.83;18.77;;;7.30;99.90;;;;;;5098770;28;20052;-79
2022/03/25 00:33:42;;;;;;;23.98;17.67;;;7.30;99.90;;;;;;5096847;28;20125;-78
2022/03/25 00:36:10;;;;;;;24.10;18.10;;;7.30;99.90;;;;;;5096975;28;20028;-79
2022/03/25 00:38:36;;;;;;;24.10;18.88;;;7.30;99.90;;;;;;5098125;28;20020;-78
2022/03/25 00:41:06;;;;;;;24.48;17.42;;;7.30;99.90;;;;;;5098637;28;20086;-79
2022/03/25 00:43:34;;;;;;;30.90;18.98;;;7.30;99.90;;;;;;5098072;28;20016;-78
2022/03/25 00:46:00;;;;;;;22.55;18.30;;;7.30;99.90;;;;;;5097305;28;20032;-79
2022/03/25 00:48:27;;;;;;;22.85;18.48;;;7.20;99.90;;;;;;5098138;28;20122;-78
2022/03/25 00:50:55;;;;;;;27.48;19.55;;;7.20;99.90;;;;;;5096919;28;20396;-79
2022/03/25 00:53:21;;;;;;;25.35;19.50;;;7.30;99.90;;;;;;5097754;28;20027;-78
2022/03/25 00:55:47;;;;;;;26.98;19.13;;;7.20;99.90;;;;;;5088583;28;20032;-78
2022/03/25 00:58:15;;;;;;;24.88;19.65;;;7.20;99.90;;;;;;5097398;28;20496;-79
2022/03/25 01:00:44;;;;;;;26.27;18.92;;;7.20;99.90;;;;;;5088961;28;20026;-78
2022/03/25 01:03:11;;;;;;;23.67;19.92;;;7.20;99.90;;;;;;5097891;28;20073;-78
2022/03/25 01:05:37;;;;;;;24.20;18.15;;;7.20;99.90;;;;;;5096679;28;20028;-78
2022/03/25 01:08:04;;;;;;;24.58;19.48;;;7.10;99.90;;;;;;5097581;28;20016;-79
2022/03/25 01:10:31;;;;;;;25.23;20.38;;;7.10;99.90;;;;;;5096479;28;20028;-79
2022/03/25 01:12:58;;;;;;;34.58;21.15;;;7.10;99.90;;;;;;5096491;28;20024;-78
2022/03/25 01:15:24;;;;;;;28.33;21.20;;;7.10;99.90;;;;;;5096690;28;20859;-78
2022/03/25 01:17:50;;;;;;;28.08;22.02;;;7.10;99.90;;;;;;5096514;28;20024;-78
2022/03/25 01:20:17;;;;;;;32.42;21.52;;;7.20;99.90;;;;;;5097103;28;20103;-78
2022/03/25 01:22:44;;;;;;;29.15;22.20;;;7.20;99.90;;;;;;5097241;28;20387;-79
2022/03/25 01:25:10;;;;;;;28.75;21.23;;;7.20;99.90;;;;;;5096366;28;20039;-78
2022/03/25 01:27:36;;;;;;;28.70;20.33;;;7.20;99.90;;;;;;5096225;28;20530;-78
2022/03/25 01:30:03;;;;;;;29.42;21.40;;;7.20;99.90;;;;;;5096552;28;20030;-78
2022/03/25 01:32:29;;;;;;;26.90;21.65;;;7.20;99.90;;;;;;5130260;27;20027;-79
2022/03/25 01:34:55;;;;;;;27.05;21.02;;;7.20;99.90;;;;;;5095912;28;20512;-78
2022/03/25 01:37:23;;;;;;;25.95;21.75;;;7.20;99.90;;;;;;5095897;28;20024;-78
2022/03/25 01:39:49;;;;;;;28.38;22.58;;;7.20;99.90;;;;;;5096044;28;20045;-78
2022/03/25 01:42:15;;;;;;;28.77;23.58;;;7.20;99.90;;;;;;5097128;28;20043;-78
2022/03/25 01:44:41;;;;;;;27.00;22.02;;;7.20;99.90;;;;;;5097572;28;20028;-79
2022/03/25 01:47:08;;;;;;;29.80;23.92;;;7.30;99.90;;;;;;5095903;28;20031;-78
2022/03/25 01:49:35;;;;;;;27.60;22.42;;;7.30;99.90;;;;;;5096239;28;20035;-78
2022/03/25 01:52:02;;;;;;;33.00;23.80;;;7.30;99.90;;;;;;5097153;28;20024;-78
2022/03/25 01:54:34;;;;;;;29.30;22.80;;;7.30;99.90;;;;;;5095813;28;20122;-78
2022/03/25 01:57:11;;;;;;;28.50;23.90;;;7.30;99.90;;;;;;5093538;28;20031;-79
2022/03/25 01:59:37;;;;;;;31.63;24.95;;;7.40;99.90;;;;;;5096111;28;20039;-78
2022/03/25 02:02:04;;;;;;;32.42;23.85;;;7.40;99.90;;;;;;5096134;28;20020;-78
2022/03/25 02:04:30;;;;;;;34.38;24.13;;;7.50;99.90;;;;;;5097112;28;20027;-78
2022/03/25 02:06:56;;;;;;;30.55;22.85;;;7.50;99.90;;;;;;5095649;28;20024;-78
2022/03/25 02:09:25;;;;;;;32.20;23.80;;;7.50;99.90;;;;;;5095667;28;20028;-78
2022/03/25 02:11:51;;;;;;;32.90;23.17;;;7.60;99.90;;;;;;5095687;28;20028;-78
2022/03/25 02:14:16;;;;;;;28.90;23.20;;;7.60;99.90;;;;;;5096752;28;20484;-78
2022/03/25 02:16:44;;;;;;;26.77;22.17;;;7.60;99.90;;;;;;5095803;28;20020;-78
2022/03/25 02:19:18;;;;;;;29.23;21.70;;;7.60;99.90;;;;;;5097010;28;20097;-78
2022/03/25 02:21:45;;;;;;;25.52;22.15;;;7.50;99.90;;;;;;5096693;28;20480;-78
2022/03/25 02:24:15;;;;;;;29.15;22.73;;;7.50;99.90;;;;;;5096953;28;20025;-78
2022/03/25 02:26:42;;;;;;;29.38;23.13;;;7.40;99.90;;;;;;5096812;28;20050;-78
2022/03/25 02:29:11;;;;;;;28.85;22.88;;;7.40;99.90;;;;;;5095749;28;20028;-78
2022/03/25 02:31:37;;;;;;;33.63;23.20;;;7.30;99.90;;;;;;5098873;28;20024;-78
2022/03/25 02:34:06;;;;;;;31.83;23.92;;;7.30;99.90;;;;;;5101108;28;20024;-78
2022/03/25 02:36:47;;;;;;;32.53;23.67;;;7.30;99.90;;;;;;5100965;28;20012;-78
2022/03/25 02:39:14;;;;;;;30.80;23.92;;;7.20;99.90;;;;;;5101447;28;20028;-78
2022/03/25 02:41:41;;;;;;;27.70;23.50;;;7.20;99.90;;;;;;5100562;28;20086;-78
2022/03/25 02:44:08;;;;;;;33.75;24.35;;;7.20;99.90;;;;;;5099496;28;20020;-78
2022/03/25 02:46:33;;;;;;;31.42;23.38;;;7.20;99.90;;;;;;5099069;28;20028;-78
2022/03/25 02:48:59;;;;;;;31.80;24.83;;;7.20;99.90;;;;;;5100571;28;20046;-78
2022/03/25 02:51:25;;;;;;;34.95;24.25;;;7.10;99.90;;;;;;5100302;28;20021;-78
2022/03/25 02:53:51;;;;;;;34.22;25.33;;;7.20;99.90;;;;;;5100425;28;20021;-78
2022/03/25 02:56:20;;;;;;;29.55;22.38;;;7.20;99.90;;;;;;5098985;28;20065;-78
2022/03/25 02:58:46;;;;;;;29.17;24.13;;;7.20;99.90;;;;;;5100401;28;20392;-79
2022/03/25 03:01:13;;;;;;;31.65;24.17;;;7.30;99.90;;;;;;5100297;28;20016;-79
2022/03/25 03:03:40;;;;;;;30.10;23.05;;;7.20;99.90;;;;;;5100359;28;20044;-78
2022/03/25 03:06:07;;;;;;;27.85;23.20;;;7.30;99.90;;;;;;5098790;28;20111;-78
2022/03/25 03:08:35;;;;;;;34.50;23.55;;;7.30;99.90;;;;;;5099985;28;20016;-78
2022/03/25 03:11:02;;;;;;;33.35;23.55;;;7.30;99.90;;;;;;5100097;28;20028;-78
2022/03/25 03:13:28;;;;;;;25.55;22.65;;;7.40;99.90;;;;;;5098910;28;20512;-78
2022/03/25 03:15:54;;;;;;;30.20;23.95;;;7.40;99.90;;;;;;5097647;28;20403;-78
2022/03/25 03:18:20;;;;;;;27.90;23.40;;;7.40;99.90;;;;;;5100363;28;20030;-78
2022/03/25 03:20:46;;;;;;;30.17;23.33;;;7.50;99.90;;;;;;5099801;28;20563;-78
2022/03/25 03:23:13;;;;;;;32.63;24.85;;;7.40;99.90;;;;;;5099599;28;20023;-79
2022/03/25 03:25:39;;;;;;;30.08;21.98;;;7.50;99.90;;;;;;5099718;28;20055;-79
2022/03/25 03:28:05;;;;;;;25.58;21.88;;;7.50;99.90;;;;;;5099785;28;20369;-79
2022/03/25 03:30:31;;;;;;;27.38;22.52;;;7.50;99.90;;;;;;5099597;28;20062;-78
2022/03/25 03:33:04;;;;;;;26.27;21.63;;;7.60;99.90;;;;;;5098751;28;20119;-78
2022/03/25 03:35:32;;;;;;;26.55;21.52;;;7.70;99.90;;;;;;5099433;28;20028;-79
2022/03/25 03:37:58;;;;;;;29.48;21.02;;;7.70;99.90;;;;;;5098083;28;20031;-78
2022/03/25 03:40:24;;;;;;;31.50;23.08;;;7.70;99.90;;;;;;5097985;28;20416;-79
2022/03/25 03:42:51;;;;;;;33.28;23.00;;;7.70;99.90;;;;;;5097768;28;20028;-79
2022/03/25 03:45:18;;;;;;;28.65;22.17;;;7.70;99.90;;;;;;5098193;28;20048;-78
2022/03/25 03:47:45;;;;;;;29.48;22.60;;;7.70;99.90;;;;;;5098592;28;20063;-78
2022/03/25 03:50:13;;;;;;;30.70;21.85;;;7.70;99.90;;;;;;5099476;28;20072;-78
2022/03/25 03:52:40;;;;;;;27.92;20.23;;;7.70;99.90;;;;;;5099236;28;20035;-78
2022/03/25 03:55:08;;;;;;;24.20;21.60;;;7.70;99.90;;;;;;5099258;28;20123;-78
2022/03/25 03:57:37;;;;;;;27.80;22.23;;;7.80;99.90;;;;;;5099395;28;20107;-78
2022/03/25 04:00:06;;;;;;;27.73;21.60;;;7.80;99.90;;;;;;5099068;28;20020;-78
2022/03/25 04:02:32;;;;;;;29.80;22.83;;;7.80;99.90;;;;;;5097805;28;20035;-78
2022/03/25 04:04:58;;;;;;;30.42;22.85;;;7.80;99.90;;;;;;5097927;28;20020;-78
2022/03/25 04:07:24;;;;;;;26.52;22.45;;;7.80;99.90;;;;;;5097488;28;20035;-78
2022/03/25 04:09:50;;;;;;;33.80;23.48;;;7.70;99.90;;;;;;5099041;28;20024;-78
2022/03/25 04:12:16;;;;;;;29.13;23.23;;;7.80;99.90;;;;;;5098798;28;20028;-78
2022/03/25 04:14:42;;;;;;;29.52;23.80;;;7.70;99.90;;;;;;5098940;28;20023;-79
2022/03/25 04:17:07;;;;;;;25.17;21.63;;;7.80;99.90;;;;;;5090322;28;20017;-78
2022/03/25 04:19:33;;;;;;;30.48;23.13;;;7.80;99.90;;;;;;5097615;28;20551;-78
2022/03/25 04:21:59;;;;;;;28.20;22.52;;;7.80;99.90;;;;;;5098468;28;20122;-78
2022/03/25 04:24:25;;;;;;;33.53;22.83;;;7.90;99.90;;;;;;5097333;28;20127;-78
2022/03/25 04:26:51;;;;;;;27.70;21.25;;;7.90;99.90;;;;;;5097468;28;20119;-78
2022/03/25 04:29:18;;;;;;;38.08;22.80;;;7.90;99.90;;;;;;5098651;28;20387;-78
2022/03/25 04:31:45;;;;;;;25.58;21.63;;;7.90;99.90;;;;;;5098685;28;20032;-78
2022/03/25 04:34:11;;;;;;;27.58;22.90;;;7.90;99.90;;;;;;5098655;28;20032;-78
2022/03/25 04:36:37;;;;;;;26.80;21.33;;;7.90;99.90;;;;;;5098139;28;20032;-78
2022/03/25 04:39:03;;;;;;;31.30;22.40;;;7.90;99.90;;;;;;5097069;28;20024;-78
2022/03/25 04:41:29;;;;;;;27.55;22.42;;;7.90;99.90;;;;;;5098196;28;20050;-78
2022/03/25 04:43:55;;;;;;;33.92;21.23;;;7.90;99.90;;;;;;5098400;28;20468;-78
2022/03/25 04:46:21;;;;;;;33.25;21.92;;;8.00;99.90;;;;;;5098254;28;20099;-78
2022/03/25 04:48:47;;;;;;;29.63;22.55;;;8.00;99.90;;;;;;5098640;28;20056;-78
2022/03/25 04:51:12;;;;;;;27.98;22.27;;;8.00;99.90;;;;;;5098237;28;20084;-78
2022/03/25 04:53:38;;;;;;;30.75;21.67;;;8.00;99.90;;;;;;5098133;28;20070;-78
2022/03/25 04:56:04;;;;;;;29.50;21.73;;;8.10;99.90;;;;;;5097263;28;20024;-78
2022/03/25 04:58:30;;;;;;;28.70;21.15;;;8.10;99.90;;;;;;5096674;28;20027;-78
2022/03/25 05:00:56;;;;;;;28.13;20.70;;;8.10;99.90;;;;;;5096827;28;20024;-78
2022/03/25 05:03:22;;;;;;;29.23;20.83;;;8.20;99.90;;;;;;5097789;28;20023;-78
2022/03/25 05:05:49;;;;;;;22.42;19.83;;;8.20;99.90;;;;;;5097101;28;20213;-78
2022/03/25 05:08:15;;;;;;;25.95;21.38;;;8.20;99.90;;;;;;5096589;28;20115;-78
2022/03/25 05:10:41;;;;;;;26.67;21.65;;;8.30;99.90;;;;;;5098434;28;20453;-78
2022/03/25 05:13:11;;;;;;;27.08;20.45;;;8.20;99.90;;;;;;5098134;28;20032;-78
2022/03/25 05:15:37;;;;;;;27.88;22.02;;;8.30;99.90;;;;;;5097564;28;20028;-78
2022/03/25 05:18:03;;;;;;;29.60;21.27;;;8.30;99.90;;;;;;5097931;28;20020;-78
2022/03/25 05:20:29;;;;;;;26.73;22.08;;;8.20;99.90;;;;;;5098028;28;20026;-78
2022/03/25 05:22:55;;;;;;;28.05;22.15;;;8.20;99.90;;;;;;5097514;28;20028;-78
2022/03/25 05:25:21;;;;;;;29.52;20.75;;;8.20;99.90;;;;;;5096311;28;20065;-78
2022/03/25 05:27:55;;;;;;;25.75;20.80;;;8.10;99.90;;;;;;5097941;28;20096;-78
2022/03/25 05:30:24;;;;;;;28.67;21.05;;;8.20;99.90;;;;;;5097479;28;20130;-78
2022/03/25 05:32:50;;;;;;;29.15;21.90;;;8.20;99.90;;;;;;5096292;28;20050;-78
2022/03/25 05:35:17;;;;;;;27.67;21.83;;;8.20;99.90;;;;;;5096203;28;20024;-78
2022/03/25 05:37:43;;;;;;;29.45;21.70;;;8.10;99.90;;;;;;5096186;28;20032;-78
2022/03/25 05:40:10;;;;;;;34.25;22.02;;;8.20;99.90;;;;;;5097513;28;20036;-78
2022/03/25 05:42:37;;;;;;;25.50;19.65;;;8.20;99.90;;;;;;5097388;28;20388;-79
2022/03/25 05:45:07;;;;;;;30.70;21.73;;;8.20;99.90;;;;;;5097504;28;20020;-78
2022/03/25 05:47:38;;;;;;;24.52;20.08;;;8.30;99.90;;;;;;5097365;28;20053;-78
2022/03/25 05:50:05;;;;;;;;;;;8.30;99.90;;;;;;5098283;28;20036;-78
2022/03/25 05:52:31;;;;;;;28.33;20.42;;;8.20;99.90;;;;;;5095925;28;19926;-78
2022/03/25 05:54:57;;;;;;;24.83;19.33;;;8.20;99.90;;;;;;5096037;28;20020;-79
2022/03/25 05:57:23;;;;;;;22.88;19.33;;;8.30;99.90;;;;;;5096026;28;20031;-78
2022/03/25 05:59:49;;;;;;;26.40;20.20;;;8.30;99.90;;;;;;5097419;28;20030;-79
2022/03/25 06:02:15;;;;;;;27.80;19.85;;;8.30;99.90;;;;;;5096006;28;20024;-78
2022/03/25 06:04:42;;;;;;;26.02;21.60;;;8.30;99.90;;;;;;5096956;28;20063;-78
2022/03/25 06:07:09;;;;;;;24.05;20.20;;;8.30;99.90;;;;;;5098375;28;20480;-78
2022/03/25 06:09:35;;;;;;;28.67;19.80;;;8.30;99.90;;;;;;5100157;28;20077;-78
2022/03/25 06:12:01;;;;;;;25.67;19.40;;;8.40;99.90;;;;;;5099369;28;20020;-78
2022/03/25 06:14:27;;;;;;;25.70;18.65;;;8.40;99.90;;;;;;5095676;28;20075;-78
2022/03/25 06:16:53;;;;;;;27.50;19.50;;;8.40;99.90;;;;;;5087040;28;20059;-78
2022/03/25 06:19:19;;;;;;;26.63;20.25;;;8.50;99.90;;;;;;5096762;28;20020;-78
2022/03/25 06:21:45;;;;;;;27.38;20.05;;;8.60;99.90;;;;;;5098417;28;20016;-78
2022/03/25 06:24:11;;;;;;;22.55;18.83;;;8.70;99.90;;;;;;5099667;28;20020;-78
2022/03/25 06:26:37;;;;;;;23.88;18.58;;;8.70;99.90;;;;;;5099706;28;20055;-77
2022/03/25 06:29:04;;;;;;;30.00;17.77;;;8.80;99.90;;;;;;5099145;28;20043;-78
2022/03/25 06:31:30;;;;;;;21.52;17.55;;;8.90;99.90;;;;;;5100228;28;20020;-78
2022/03/25 06:33:56;;;;;;;22.85;17.48;;;8.90;99.90;;;;;;5079117;28;20031;-80
2022/03/25 06:36:22;;;;;;;27.40;18.80;;;9.00;99.90;;;;;;5074269;28;20036;-79
2022/03/25 06:38:48;;;;;;;20.15;17.08;;;9.10;99.90;;;;;;5091180;28;20028;-80
2022/03/25 06:41:14;;;;;;;26.50;18.40;;;9.10;99.90;;;;;;5099318;28;20048;-79
2022/03/25 06:43:40;;;;;;;25.23;19.90;;;9.20;99.90;;;;;;5099140;28;20024;-79
2022/03/25 06:46:06;;;;;;;24.42;17.75;;;9.20;99.90;;;;;;5096091;28;20023;-79
2022/03/25 06:48:33;;;;;;;25.75;17.40;;;9.30;99.90;;;;;;5102971;28;20024;-79
2022/03/25 06:50:59;;;;;;;22.38;17.25;;;9.30;99.90;;;;;;5099559;28;20422;-79
2022/03/25 06:53:26;;;;;;;20.63;17.00;;;9.40;99.90;;;;;;5100379;28;20040;-79
2022/03/25 06:55:53;;;;;;;23.70;19.42;;;9.40;99.90;;;;;;5100469;28;20029;-79
2022/03/25 06:58:19;;;;;;;25.20;18.92;;;9.50;99.90;;;;;;5100232;28;20030;-80
2022/03/25 07:00:45;;;;;;;19.98;16.02;;;9.50;99.90;;;;;;5100546;28;20012;-79
2022/03/25 07:03:12;;;;;;;22.50;16.08;;;9.60;99.90;;;;;;5098927;28;20020;-80
2022/03/25 07:05:38;;;;;;;25.15;17.25;;;9.70;99.90;;;;;;5098971;28;20052;-80
2022/03/25 07:08:05;;;;;;;20.90;17.42;;;9.70;99.90;;;;;;5099901;28;20023;-79
2022/03/25 07:10:31;;;;;;;22.55;16.27;;;9.80;99.90;;;;;;5100254;28;20430;-79
2022/03/25 07:12:57;;;;;;;23.30;17.35;;;9.80;99.90;;;;;;5098759;28;20063;-80
2022/03/25 07:15:24;;;;;;;18.70;15.45;;;9.80;99.90;;;;;;5100016;28;20080;-79
2022/03/25 07:17:52;;;;;;;19.90;15.07;;;9.90;99.90;;;;;;5099095;28;20106;-79
2022/03/25 07:20:19;;;;;;;19.48;15.48;;;9.90;99.90;;;;;;5092551;28;20017;-79
2022/03/25 07:22:47;;;;;;;20.55;16.17;;;10.00;99.90;;;;;;5097676;28;20028;-79
2022/03/25 07:25:14;;;;;;;23.23;15.48;;;10.00;99.90;;;;;;5099320;28;20039;-80
2022/03/25 07:27:40;;;;;;;19.60;16.27;;;10.00;99.90;;;;;;5098553;28;20024;-81
2022/03/25 07:30:08;;;;;;;21.38;15.93;;;10.10;99.90;;;;;;5099766;28;20028;-81
2022/03/25 07:32:34;;;;;;;20.63;15.73;;;10.10;99.90;;;;;;5099038;28;20052;-83
2022/03/25 07:34:59;;;;;;;22.95;16.52;;;10.20;99.90;;;;;;5089307;28;20017;-82
2022/03/25 07:37:25;;;;;;;19.77;15.32;;;10.20;99.90;;;;;;5097994;28;20031;-82
2022/03/25 07:39:51;;;;;;;20.40;15.55;;;10.30;99.90;;;;;;5099700;28;20365;-82
2022/03/25 07:42:17;;;;;;;17.52;15.23;;;10.40;99.90;;;;;;5099537;28;20581;-81
2022/03/25 07:44:43;;;;;;;25.30;16.65;;;10.50;99.90;;;;;;5098998;28;20032;-81
2022/03/25 07:47:13;;;;;;;20.65;17.20;;;10.50;99.90;;;;;;5099017;28;20028;-77
2022/03/25 07:49:40;;;;;;;20.80;16.02;;;10.70;99.90;;;;;;5098614;28;20028;-80
2022/03/25 07:52:14;;;;;;;18.63;15.65;;;10.70;99.90;;;;;;5100319;28;20036;-83
2022/03/25 07:54:40;;;;;;;17.20;14.93;;;10.80;99.90;;;;;;5097899;28;20024;-83
2022/03/25 07:57:05;;;;;;;23.02;14.88;;;11.00;99.90;;;;;;5099416;28;20020;-82
2022/03/25 07:59:31;;;;;;;18.35;14.13;;;11.10;99.90;;;;;;5097800;28;20644;-82
2022/03/25 08:01:58;;;;;;;23.90;15.93;;;11.10;99.90;;;;;;5098787;28;20393;-81
2022/03/25 08:04:24;;;;;;;17.60;13.60;;;11.40;99.90;;;;;;5095116;28;20096;-81
2022/03/25 08:06:54;;;;;;;18.50;14.25;;;11.50;99.90;;;;;;5091268;28;20039;-80
2022/03/25 08:09:20;;;;;;;17.02;14.10;;;11.60;99.90;;;;;;5097406;28;20480;-79
2022/03/25 08:11:47;;;;;;;20.42;14.68;;;11.70;99.90;;;;;;5087195;28;20552;-79
2022/03/25 08:14:14;;;;;;;16.65;14.13;;;11.80;99.90;;;;;;5092262;28;20027;-80
2022/03/25 08:16:40;;;;;;;16.42;12.27;;;11.90;99.90;;;;;;5099000;28;20054;-78
2022/03/25 08:19:06;;;;;;;14.02;12.57;;;12.10;99.90;;;;;;5085867;28;20444;-79
2022/03/25 08:21:32;;;;;;;16.30;13.68;;;12.20;99.90;;;;;;5098311;28;20024;-79
2022/03/25 08:29:27;;;;;;;15.68;13.20;;;12.50;99.90;;;;;;5098792;28;20078;-79
2022/03/25 08:31:53;;;;;;;14.55;11.63;;;12.50;99.90;;;;;;5097847;28;20028;-79
2022/03/25 08:34:20;;;;;;;15.95;12.95;;;12.60;99.90;;;;;;5098587;28;20039;-79
2022/03/25 08:36:47;;;;;;;14.07;11.57;;;12.60;99.90;;;;;;5097177;28;20032;-79
2022/03/25 08:39:14;;;;;;;16.13;12.90;;;12.70;99.90;;;;;;5096132;28;20024;-79
2022/03/25 08:41:40;;;;;;;17.85;11.68;;;12.70;99.90;;;;;;5093606;28;20492;-78
2022/03/25 08:44:07;;;;;;;14.57;11.23;;;12.70;99.90;;;;;;5094134;28;20503;-78
2022/03/25 08:46:34;;;;;;;17.42;11.70;;;12.70;99.90;;;;;;5089835;28;20024;-79
2022/03/25 08:49:01;;;;;;;14.52;10.95;;;12.70;99.90;;;;;;5079784;28;20469;-78
2022/03/25 08:51:27;;;;;;;12.23;10.85;;;12.70;99.90;;;;;;5080416;28;20024;-79
2022/03/25 08:53:53;;;;;;;14.23;11.55;;;12.80;99.90;;;;;;5077080;28;20385;-81
2022/03/25 08:56:21;;;;;;;22.35;10.82;;;12.80;99.90;;;;;;5093592;28;20067;-80
2022/03/25 08:58:47;;;;;;;13.02;10.93;;;12.90;99.90;;;;;;5088659;28;20480;-79
2022/03/25 09:01:13;;;;;;;15.15;9.50;;;12.90;99.90;;;;;;5096377;28;20020;-79
2022/03/25 09:03:39;;;;;;;16.80;10.70;;;13.00;99.90;;;;;;5095420;28;20024;-80
2022/03/25 09:06:05;;;;;;;14.32;10.48;;;13.00;99.90;;;;;;5097544;28;20399;-79
2022/03/25 09:08:32;;;;;;;12.23;9.48;;;13.10;99.90;;;;;;5096698;28;20063;-83
2022/03/25 09:10:58;;;;;;;12.90;9.30;;;13.20;99.90;;;;;;5095926;28;20061;-81
2022/03/25 09:13:24;;;;;;;13.05;9.10;;;13.20;99.90;;;;;;5097125;28;20024;-82
2022/03/25 09:15:50;;;;;;;14.10;9.48;;;13.30;99.90;;;;;;5096855;28;20109;-81
2022/03/25 09:18:16;;;;;;;14.40;10.50;;;13.50;99.90;;;;;;5096334;28;20024;-80
2022/03/25 09:20:44;;;;;;;15.05;10.35;;;13.60;99.90;;;;;;5094576;28;20024;-81
2022/03/25 09:23:10;;;;;;;18.13;10.73;;;13.70;99.90;;;;;;5094697;28;20030;-79
2022/03/25 09:25:36;;;;;;;15.90;9.93;;;13.70;99.90;;;;;;5094869;28;20484;-80
2022/03/25 09:28:02;;;;;;;10.43;9.23;;;13.80;99.90;;;;;;5095342;28;20028;-79
2022/03/25 09:30:28;;;;;;;11.25;9.15;;;13.90;99.90;;;;;;5095798;28;20058;-80
2022/03/25 09:32:54;;;;;;;10.48;8.25;;;13.90;99.90;;;;;;5097502;28;20020;-78
2022/03/25 09:35:21;;;;;;;11.52;9.23;;;14.10;99.90;;;;;;5096014;28;20032;-79
2022/03/25 09:37:48;;;;;;;11.98;9.15;;;14.20;99.90;;;;;;5096526;28;20440;-79
2022/03/25 09:40:21;;;;;;;11.25;9.15;;;14.20;99.90;;;;;;5095930;28;20195;-79
2022/03/25 09:42:50;;;;;;;17.35;8.50;;;14.20;99.90;;;;;;5097465;28;20496;-79
2022/03/25 09:45:16;;;;;;;10.40;9.20;;;14.30;99.90;;;;;;5097811;28;20059;-79
2022/03/25 09:47:44;;;;;;;14.18;8.75;;;14.30;99.90;;;;;;5099014;28;20111;-79
2022/03/25 09:50:12;;;;;;;12.27;8.48;;;14.40;99.90;;;;;;5099196;28;20035;-79
2022/03/25 09:52:39;;;;;;;12.40;8.30;;;14.40;99.90;;;;;;5098894;28;20035;-79
2022/03/25 09:55:06;;;;;;;12.75;8.25;;;14.50;99.90;;;;;;5097342;28;20020;-80
2022/03/25 09:57:32;;;;;;;15.20;7.88;;;14.60;99.90;;;;;;5099315;28;20103;-79
2022/03/25 09:59:58;;;;;;;10.95;8.35;;;14.50;99.90;;;;;;5097743;28;20013;-80
2022/03/25 10:02:25;;;;;;;12.00;7.63;;;14.70;99.90;;;;;;5096451;28;20549;-79
2022/03/25 10:04:56;;;;;;;17.20;8.80;;;14.70;99.90;;;;;;5096394;28;20020;-80
2022/03/25 10:07:25;;;;;;;15.57;8.25;;;14.60;99.90;;;;;;5095651;28;20032;-80
2022/03/25 10:10:10;;;;;;;11.80;7.88;;;14.70;99.90;;;;;;5097846;28;20024;-78
2022/03/25 10:12:38;;;;;;;11.15;7.72;;;14.90;99.90;;;;;;5097226;28;20110;-78
2022/03/25 10:15:16;;;;;;;14.20;7.88;;;15.10;99.90;;;;;;5096442;28;20063;-80
2022/03/25 10:17:51;;;;;;;16.42;8.13;;;15.20;99.90;;;;;;5096484;28;20119;-81
2022/03/25 10:20:19;;;;;;;14.60;7.82;;;15.40;99.90;;;;;;5097367;28;20036;-79
2022/03/25 10:23:18;;;;;;;12.18;7.95;;;15.40;99.90;;;;;;5097314;28;20047;-80
2022/03/25 10:25:55;;;;;;;8.68;7.03;;;15.60;99.90;;;;;;5096144;28;20039;-79
2022/03/25 10:28:24;;;;;;;13.15;8.57;;;15.70;99.90;;;;;;5095556;28;20021;-79
2022/03/25 10:30:52;;;;;;;11.70;9.10;;;15.80;99.90;;;;;;5082424;28;20032;-78
2022/03/25 10:33:24;;;;;;;9.32;7.80;;;15.80;99.90;;;;;;5095566;28;20035;-79
2022/03/25 10:36:01;;;;;;;9.05;7.10;;;15.70;99.90;;;;;;5095474;28;20032;-80
2022/03/25 10:38:43;;;;;;;11.13;8.30;;;15.70;99.90;;;;;;5096661;28;20103;-79
2022/03/25 10:41:10;;;;;;;9.68;7.68;;;15.70;99.90;;;;;;5096949;28;20160;-80
2022/03/25 10:43:53;;;;;;;8.77;7.40;;;15.80;99.90;;;;;;5095368;28;20048;-79
2022/03/25 10:46:28;;;;;;;12.32;6.93;;;15.70;99.90;;;;;;5094688;28;20028;-79
2022/03/25 10:48:54;;;;;;;9.55;6.88;;;15.60;99.90;;;;;;5096813;28;20028;-78
2022/03/25 10:51:20;;;;;;;11.25;7.30;;;15.50;99.90;;;;;;5094967;28;20062;-78
2022/03/25 10:53:54;;;;;;;10.55;7.57;;;15.60;99.90;;;;;;5098840;28;20021;-78
2022/03/25 10:56:20;;;;;;;10.90;7.03;;;15.60;99.90;;;;;;5100339;28;20036;-78
2022/03/25 10:58:56;;;;;;;11.20;7.05;;;15.60;99.90;;;;;;5100341;28;20020;-78
2022/03/25 11:01:23;;;;;;;13.32;7.00;;;15.60;99.90;;;;;;5100310;28;20016;-78
2022/03/25 11:03:51;;;;;;;12.68;6.82;;;15.50;99.90;;;;;;5099279;28;20054;-77
2022/03/25 11:06:18;;;;;;;7.95;6.72;;;15.40;99.90;;;;;;5098645;28;20105;-79
2022/03/25 11:08:45;;;;;;;12.10;7.35;;;15.40;99.90;;;;;;5098824;28;20024;-77
2022/03/25 11:11:14;;;;;;;9.55;6.63;;;15.40;99.90;;;;;;5100021;28;20120;-79
2022/03/25 11:13:42;;;;;;;8.20;6.72;;;15.40;99.90;;;;;;5098659;28;20024;-78
2022/03/25 11:16:12;;;;;;;8.07;6.68;;;15.40;99.90;;;;;;5097415;28;20035;-77
2022/03/25 11:18:41;;;;;;;8.63;6.85;;;15.40;99.90;;;;;;5100053;28;20050;-77
2022/03/25 11:21:09;;;;;;;13.50;7.32;;;15.40;99.90;;;;;;5100383;28;20047;-78
2022/03/25 11:23:49;;;;;;;9.93;6.65;;;15.50;99.90;;;;;;5100206;28;20019;-77
2022/03/25 11:26:19;;;;;;;7.65;6.68;;;15.70;99.90;;;;;;5098747;28;20544;-77
2022/03/25 11:28:51;;;;;;;11.35;7.60;;;15.80;99.90;;;;;;5099543;28;20035;-78
2022/03/25 11:31:16;;;;;;;8.38;6.60;;;15.90;99.90;;;;;;5098342;28;20027;-78
2022/03/25 11:34:05;;;;;;;11.57;7.15;;;16.20;99.90;;;;;;5099796;28;20105;-77
2022/03/25 11:36:31;;;;;;;11.73;6.97;;;16.50;99.90;;;;;;5098153;28;20028;-77
2022/03/25 11:39:17;;;;;;;12.27;5.97;;;16.70;99.90;;;;;;5099920;28;20028;-77
2022/03/25 11:41:43;;;;;;;10.57;6.55;;;16.80;99.90;;;;;;5098044;28;20052;-77
2022/03/25 11:44:15;;;;;;;8.25;5.85;;;17.00;99.90;;;;;;5099675;28;20016;-77
2022/03/25 11:46:59;;;;;;;10.20;6.60;;;17.10;99.90;;;;;;5098048;28;20027;-77
2022/03/25 11:49:41;;;;;;;9.95;6.47;;;17.20;99.90;;;;;;5093905;28;20027;-77
2022/03/25 11:52:16;;;;;;;8.27;6.22;;;17.40;99.90;;;;;;5099298;28;20086;-77
2022/03/25 11:54:43;;;;;;;9.32;5.55;;;17.40;99.90;;;;;;5099262;28;20035;-77
2022/03/25 11:57:27;;;;;;;7.28;5.53;;;17.60;99.90;;;;;;5097855;28;20032;-77
2022/03/25 11:59:55;;;;;;;7.63;5.45;;;17.50;99.90;;;;;;5099208;28;20487;-79
2022/03/25 12:02:40;;;;;;;8.25;6.38;;;17.60;99.90;;;;;;5099396;28;20025;-77
2022/03/25 12:05:26;;;;;;;11.25;5.63;;;17.60;99.50;;;;;;5098853;28;20028;-77
2022/03/25 12:08:20;;;;;;;7.95;6.22;;;17.80;99.90;;;;;;5074684;28;20044;-77
2022/03/25 12:10:47;;;;;;;7.57;5.25;;;17.90;98.20;;;;;;5098935;28;20107;-78
2022/03/25 12:13:13;;;;;;;8.73;5.80;;;17.90;97.60;;;;;;5098944;28;20112;-77
2022/03/25 12:15:47;;;;;;;8.20;5.63;;;17.90;96.60;;;;;;5098797;28;20029;-77
2022/03/25 12:18:41;;;;;;;14.88;5.22;;;18.00;96.00;;;;;;5097592;28;20035;-77
2022/03/25 12:21:25;;;;;;;10.23;5.25;;;17.90;96.40;;;;;;5097399;28;20020;-77
2022/03/25 12:24:00;;;;;;;8.63;4.90;;;18.00;94.50;;;;;;5096697;28;20028;-78
2022/03/25 12:26:33;;;;;;;7.75;5.25;;;18.00;93.50;;;;;;5099113;28;20372;-77
2022/03/25 12:28:59;;;;;;;7.35;5.13;;;18.00;91.20;;;;;;5098597;28;20039;-78
2022/03/25 12:31:26;;;;;;;8.70;5.50;;;17.90;90.40;;;;;;5098352;28;20032;-78
2022/03/25 12:33:56;;;;;;;9.32;5.07;;;17.90;88.90;;;;;;5097979;28;20047;-78
2022/03/25 12:36:27;;;;;;;;;;;17.90;89.30;;;;;;5097993;28;20380;-77
2022/03/25 12:38:57;;;;;;;9.23;4.57;;;17.90;87.00;;;;;;5097027;28;19987;-78
2022/03/25 12:41:30;;;;;;;9.57;5.20;;;18.00;88.40;;;;;;5097256;28;20097;-78
2022/03/25 12:44:02;;;;;;;7.75;4.18;;;18.20;88.70;;;;;;5098490;28;20449;-77
2022/03/25 12:46:29;;;;;;;6.25;4.38;;;18.20;85.00;;;;;;5098541;28;20392;-77
2022/03/25 12:49:06;;;;;;;9.38;4.07;;;18.10;82.10;;;;;;5097204;28;20024;-78